createdAt,value
2022-11-07T00:00:50.792Z,0.00
2022-11-07T00:01:50.843Z,0.00
2022-11-07T00:02:50.875Z,0.00
2022-11-07T00:03:50.774Z,0.00
2022-11-07T00:04:50.769Z,0.00
2022-11-07T00:05:50.767Z,0.00
2022-11-07T00:06:50.771Z,0.00
2022-11-07T00:07:50.754Z,0.00
2022-11-07T00:08:50.754Z,0.00
2022-11-07T00:09:50.764Z,0.00
2022-11-07T00:10:50.747Z,0.00
2022-11-07T00:11:50.741Z,0.00
2022-11-07T00:12:50.734Z,0.00
2022-11-07T00:13:50.739Z,0.00
2022-11-07T00:14:50.730Z,0.00
2022-11-07T00:15:50.732Z,0.00
2022-11-07T00:16:50.723Z,0.00
2022-11-07T00:17:50.716Z,0.00
2022-11-07T00:18:50.717Z,0.00
2022-11-07T00:19:50.710Z,0.00
2022-11-07T00:20:50.709Z,0.00
2022-11-07T00:21:50.713Z,0.00
2022-11-07T00:22:50.697Z,0.00
2022-11-07T00:23:50.707Z,0.00
2022-11-07T00:24:50.687Z,0.00
2022-11-07T00:25:50.703Z,0.00
2022-11-07T00:26:50.712Z,0.00
2022-11-07T00:27:50.685Z,0.00
2022-11-07T00:28:50.670Z,0.00
2022-11-07T00:29:50.676Z,0.00
2022-11-07T00:30:50.667Z,0.00
2022-11-07T00:31:50.663Z,0.00
2022-11-07T00:32:50.660Z,0.00
2022-11-07T00:33:50.663Z,0.00
2022-11-07T00:34:50.650Z,0.00
2022-11-07T00:35:50.648Z,0.00
2022-11-07T00:36:50.647Z,0.00
2022-11-07T00:37:50.648Z,0.00
2022-11-07T00:38:50.637Z,0.00
2022-11-07T00:39:50.632Z,0.00
2022-11-07T00:40:50.625Z,0.00
2022-11-07T00:41:50.738Z,0.00
2022-11-07T00:42:50.624Z,0.00
2022-11-07T00:43:50.630Z,0.00
2022-11-07T00:44:50.618Z,0.00
2022-11-07T00:45:50.608Z,0.00
2022-11-07T00:46:50.608Z,0.00
2022-11-07T00:47:50.604Z,0.00
2022-11-07T00:48:50.612Z,0.00
2022-11-07T00:49:50.773Z,0.00
2022-11-07T00:50:50.592Z,0.00
2022-11-07T00:51:50.589Z,0.00
2022-11-07T00:52:50.594Z,0.00
2022-11-07T00:53:50.582Z,0.00
2022-11-07T00:54:50.588Z,0.00
2022-11-07T00:55:50.580Z,0.00
2022-11-07T00:56:50.572Z,0.00
2022-11-07T00:57:50.594Z,0.00
2022-11-07T00:58:50.567Z,0.00
2022-11-07T00:59:50.555Z,0.00
2022-11-07T01:00:50.566Z,0.00
2022-11-07T01:01:50.665Z,0.00
2022-11-07T01:02:50.712Z,0.00
2022-11-07T01:03:50.545Z,0.00
2022-11-07T01:04:50.550Z,0.00
2022-11-07T01:05:50.543Z,0.00
2022-11-07T01:06:50.525Z,0.00
2022-11-07T01:07:50.524Z,0.00
2022-11-07T01:08:50.540Z,0.00
2022-11-07T01:09:50.533Z,0.00
2022-11-07T01:10:50.514Z,0.00
2022-11-07T01:11:50.518Z,0.00
2022-11-07T01:12:50.506Z,0.00
2022-11-07T01:13:50.525Z,0.00
2022-11-07T01:14:50.508Z,0.00
2022-11-07T01:15:50.494Z,0.00
2022-11-07T01:16:50.493Z,0.00
2022-11-07T01:17:50.491Z,0.00
2022-11-07T01:18:50.483Z,0.00
2022-11-07T01:19:50.492Z,0.00
2022-11-07T01:20:50.482Z,0.00
2022-11-07T01:21:50.470Z,0.00
2022-11-07T01:22:50.477Z,0.00
2022-11-07T01:23:50.472Z,0.00
2022-11-07T01:24:50.461Z,0.00
2022-11-07T01:25:50.454Z,0.00
2022-11-07T01:26:50.453Z,0.00
2022-11-07T01:27:53.068Z,0.00
2022-11-07T01:28:50.449Z,0.00
2022-11-07T01:29:51.086Z,0.00
2022-11-07T01:30:50.439Z,0.00
2022-11-07T01:31:50.436Z,0.00
2022-11-07T01:32:50.439Z,0.00
2022-11-07T01:33:50.442Z,0.00
2022-11-07T01:34:50.438Z,0.00
2022-11-07T01:35:50.426Z,0.00
2022-11-07T01:36:50.425Z,0.00
2022-11-07T01:37:50.419Z,0.00
2022-11-07T01:38:50.407Z,0.00
2022-11-07T01:39:50.416Z,0.00
2022-11-07T01:40:50.398Z,0.00
2022-11-07T01:41:50.393Z,0.00
2022-11-07T01:42:50.397Z,0.00
2022-11-07T01:43:50.394Z,0.00
2022-11-07T01:44:50.396Z,0.00
2022-11-07T01:45:50.417Z,0.00
2022-11-07T01:46:50.382Z,0.00
2022-11-07T01:47:50.384Z,0.00
2022-11-07T01:48:50.379Z,0.00
2022-11-07T01:49:50.373Z,0.00
2022-11-07T01:50:50.368Z,0.00
2022-11-07T01:51:50.356Z,0.00
2022-11-07T01:52:50.360Z,0.00
2022-11-07T01:53:50.372Z,0.00
2022-11-07T01:54:50.343Z,0.00
2022-11-07T01:55:50.355Z,0.00
2022-11-07T01:56:50.354Z,0.00
2022-11-07T01:57:50.345Z,0.00
2022-11-07T01:58:50.337Z,0.00
2022-11-07T01:59:50.379Z,0.00
2022-11-07T02:00:50.350Z,0.00
2022-11-07T02:01:50.500Z,0.00
2022-11-07T02:02:50.522Z,0.00
2022-11-07T02:03:50.318Z,0.00
2022-11-07T02:04:50.322Z,0.00
2022-11-07T02:05:50.316Z,0.00
2022-11-07T02:06:50.312Z,0.00
2022-11-07T02:07:50.294Z,0.00
2022-11-07T02:08:50.296Z,0.00
2022-11-07T02:09:50.299Z,0.00
2022-11-07T02:10:50.294Z,0.00
2022-11-07T02:11:50.281Z,0.00
2022-11-07T02:12:50.276Z,0.00
2022-11-07T02:13:50.281Z,0.00
2022-11-07T02:14:50.277Z,0.00
2022-11-07T02:15:50.263Z,0.00
2022-11-07T02:16:50.268Z,0.00
2022-11-07T02:17:50.285Z,0.00
2022-11-07T02:18:50.263Z,0.00
2022-11-07T02:19:50.271Z,0.00
2022-11-07T02:20:50.252Z,0.00
2022-11-07T02:21:50.250Z,0.00
2022-11-07T02:22:50.247Z,0.00
2022-11-07T02:23:50.245Z,0.00
2022-11-07T02:24:50.253Z,0.00
2022-11-07T02:25:50.231Z,0.00
2022-11-07T02:26:50.229Z,0.00
2022-11-07T02:27:50.229Z,0.00
2022-11-07T02:28:50.213Z,0.00
2022-11-07T02:29:50.237Z,0.00
2022-11-07T02:30:50.221Z,0.00
2022-11-07T02:31:50.221Z,0.00
2022-11-07T02:32:50.216Z,0.00
2022-11-07T02:33:50.231Z,0.00
2022-11-07T02:34:50.195Z,0.00
2022-11-07T02:35:50.196Z,0.00
2022-11-07T02:36:50.190Z,0.00
2022-11-07T02:37:50.200Z,0.00
2022-11-07T02:38:50.180Z,0.00
2022-11-07T02:39:50.183Z,0.00
2022-11-07T02:40:50.176Z,0.00
2022-11-07T02:41:50.194Z,0.00
2022-11-07T02:42:50.181Z,0.00
2022-11-07T02:43:50.170Z,0.00
2022-11-07T02:44:50.156Z,0.00
2022-11-07T02:45:50.153Z,0.00
2022-11-07T02:46:50.162Z,0.00
2022-11-07T02:47:50.148Z,0.00
2022-11-07T02:48:50.144Z,0.00
2022-11-07T02:49:50.157Z,0.00
2022-11-07T02:50:50.145Z,0.00
2022-11-07T02:51:50.147Z,0.00
2022-11-07T02:52:50.123Z,0.00
2022-11-07T02:53:50.132Z,0.00
2022-11-07T02:54:50.123Z,0.00
2022-11-07T02:55:50.123Z,0.00
2022-11-07T02:56:50.128Z,0.00
2022-11-07T02:57:50.116Z,0.00
2022-11-07T02:58:50.102Z,0.00
2022-11-07T02:59:50.102Z,0.00
2022-11-07T03:00:50.107Z,0.00
2022-11-07T03:01:50.269Z,0.00
2022-11-07T03:02:50.253Z,0.00
2022-11-07T03:03:50.089Z,0.00
2022-11-07T03:04:50.092Z,0.00
2022-11-07T03:05:50.100Z,0.00
2022-11-07T03:06:50.076Z,0.00
2022-11-07T03:07:50.080Z,0.00
2022-11-07T03:08:50.067Z,0.00
2022-11-07T03:09:50.065Z,0.00
2022-11-07T03:10:50.077Z,0.00
2022-11-07T03:11:50.073Z,0.00
2022-11-07T03:12:50.070Z,0.00
2022-11-07T03:13:50.054Z,0.00
2022-11-07T03:14:50.128Z,0.00
2022-11-07T03:15:50.049Z,0.00
2022-11-07T03:16:50.040Z,0.00
2022-11-07T03:17:50.049Z,0.00
2022-11-07T03:18:50.041Z,0.00
2022-11-07T03:19:50.032Z,0.00
2022-11-07T03:20:50.026Z,0.00
2022-11-07T03:21:50.032Z,0.00
2022-11-07T03:22:50.024Z,0.00
2022-11-07T03:23:50.008Z,0.00
2022-11-07T03:24:50.016Z,0.00
2022-11-07T03:25:50.010Z,0.00
2022-11-07T03:26:49.995Z,0.00
2022-11-07T03:27:49.998Z,0.00
2022-11-07T03:28:50.008Z,0.00
2022-11-07T03:29:49.997Z,0.00
2022-11-07T03:30:49.994Z,0.00
2022-11-07T03:31:49.997Z,0.00
2022-11-07T03:32:49.975Z,0.00
2022-11-07T03:33:49.977Z,0.00
2022-11-07T03:34:49.967Z,0.00
2022-11-07T03:35:49.976Z,0.00
2022-11-07T03:36:49.970Z,0.00
2022-11-07T03:37:49.976Z,0.00
2022-11-07T03:38:49.961Z,0.00
2022-11-07T03:39:49.947Z,0.00
2022-11-07T03:40:49.954Z,0.00
2022-11-07T03:41:49.950Z,0.00
2022-11-07T03:42:49.947Z,0.00
2022-11-07T03:43:49.945Z,0.00
2022-11-07T03:44:49.940Z,0.00
2022-11-07T03:45:49.935Z,0.00
2022-11-07T03:46:49.920Z,0.00
2022-11-07T03:47:49.919Z,0.00
2022-11-07T03:48:49.924Z,0.00
2022-11-07T03:49:49.938Z,0.00
2022-11-07T03:50:49.919Z,0.00
2022-11-07T03:51:49.913Z,0.00
2022-11-07T03:52:49.903Z,0.00
2022-11-07T03:53:49.926Z,0.00
2022-11-07T03:54:49.904Z,0.00
2022-11-07T03:55:49.896Z,0.00
2022-11-07T03:56:49.889Z,0.00
2022-11-07T03:57:49.891Z,0.00
2022-11-07T03:58:49.879Z,0.00
2022-11-07T03:59:49.892Z,0.00
2022-11-07T04:00:49.874Z,0.00
2022-11-07T04:01:49.977Z,0.00
2022-11-07T04:02:49.951Z,0.00
2022-11-07T04:03:52.729Z,0.00
2022-11-07T04:04:49.869Z,0.00
2022-11-07T04:05:49.854Z,0.00
2022-11-07T04:06:49.859Z,0.00
2022-11-07T04:07:49.857Z,0.00
2022-11-07T04:08:49.844Z,0.00
2022-11-07T04:09:49.984Z,0.00
2022-11-07T04:10:49.835Z,0.00
2022-11-07T04:11:49.830Z,0.00
2022-11-07T04:12:49.831Z,0.00
2022-11-07T04:13:49.820Z,0.00
2022-11-07T04:14:49.817Z,0.00
2022-11-07T04:15:50.166Z,0.00
2022-11-07T04:16:49.808Z,0.00
2022-11-07T04:17:49.813Z,0.00
2022-11-07T04:18:49.862Z,0.00
2022-11-07T04:19:49.814Z,0.00
2022-11-07T04:20:49.792Z,0.00
2022-11-07T04:21:49.800Z,0.00
2022-11-07T04:22:49.799Z,0.00
2022-11-07T04:23:49.787Z,0.00
2022-11-07T04:24:49.799Z,0.00
2022-11-07T04:25:49.800Z,0.00
2022-11-07T04:26:49.771Z,0.00
2022-11-07T04:27:49.766Z,0.00
2022-11-07T04:28:49.767Z,0.00
2022-11-07T04:29:49.778Z,0.00
2022-11-07T04:30:49.753Z,0.00
2022-11-07T04:31:49.763Z,0.00
2022-11-07T04:32:49.762Z,0.00
2022-11-07T04:33:49.758Z,0.00
2022-11-07T04:34:49.748Z,0.00
2022-11-07T04:35:49.743Z,0.00
2022-11-07T04:36:49.755Z,0.00
2022-11-07T04:37:49.756Z,0.00
2022-11-07T04:38:49.736Z,0.00
2022-11-07T04:39:49.719Z,0.00
2022-11-07T04:40:49.738Z,0.00
2022-11-07T04:41:49.730Z,0.00
2022-11-07T04:42:49.714Z,0.00
2022-11-07T04:43:49.715Z,0.00
2022-11-07T04:44:49.725Z,0.00
2022-11-07T04:45:49.723Z,0.00
2022-11-07T04:46:49.737Z,0.00
2022-11-07T04:47:49.698Z,0.00
2022-11-07T04:48:49.688Z,0.00
2022-11-07T04:49:49.689Z,0.00
2022-11-07T04:50:49.685Z,0.00
2022-11-07T04:51:49.703Z,0.00
2022-11-07T04:52:49.690Z,0.00
2022-11-07T04:53:49.681Z,0.00
2022-11-07T04:54:49.664Z,0.00
2022-11-07T04:55:49.676Z,0.00
2022-11-07T04:56:49.666Z,0.00
2022-11-07T04:57:49.681Z,0.00
2022-11-07T04:58:49.656Z,0.00
2022-11-07T04:59:49.643Z,0.00
2022-11-07T05:00:49.659Z,0.00
2022-11-07T05:01:49.793Z,0.00
2022-11-07T05:02:49.726Z,0.00
2022-11-07T05:03:49.635Z,0.00
2022-11-07T05:04:49.629Z,0.00
2022-11-07T05:05:49.629Z,0.00
2022-11-07T05:06:49.618Z,0.00
2022-11-07T05:07:49.623Z,0.00
2022-11-07T05:08:49.611Z,0.00
2022-11-07T05:09:49.621Z,0.00
2022-11-07T05:10:49.609Z,0.00
2022-11-07T05:11:49.605Z,0.00
2022-11-07T05:12:49.592Z,0.00
2022-11-07T05:13:49.620Z,0.00
2022-11-07T05:14:49.593Z,0.00
2022-11-07T05:15:49.609Z,0.00
2022-11-07T05:16:49.588Z,0.00
2022-11-07T05:17:49.580Z,0.00
2022-11-07T05:18:49.582Z,0.00
2022-11-07T05:19:49.571Z,0.00
2022-11-07T05:20:49.574Z,0.00
2022-11-07T05:21:49.598Z,0.00
2022-11-07T05:22:55.137Z,0.00
2022-11-07T05:23:49.560Z,0.00
2022-11-07T05:24:49.567Z,0.00
2022-11-07T05:25:49.582Z,0.00
2022-11-07T05:26:49.555Z,0.00
2022-11-07T05:27:49.544Z,0.00
2022-11-07T05:28:49.533Z,0.00
2022-11-07T05:29:49.560Z,0.00
2022-11-07T05:30:49.540Z,0.00
2022-11-07T05:31:49.526Z,0.00
2022-11-07T05:32:49.519Z,0.00
2022-11-07T05:33:49.514Z,0.00
2022-11-07T05:34:49.529Z,0.00
2022-11-07T05:35:49.509Z,0.00
2022-11-07T05:36:49.527Z,0.00
2022-11-07T05:37:49.507Z,0.00
2022-11-07T05:38:49.498Z,0.00
2022-11-07T05:39:54.727Z,0.00
2022-11-07T05:40:49.505Z,0.00
2022-11-07T05:41:49.486Z,0.00
2022-11-07T05:42:49.483Z,0.00
2022-11-07T05:43:49.482Z,0.00
2022-11-07T05:44:49.485Z,0.00
2022-11-07T05:45:49.489Z,0.00
2022-11-07T05:46:49.475Z,0.00
2022-11-07T05:47:49.460Z,0.00
2022-11-07T05:48:49.466Z,0.00
2022-11-07T05:49:49.467Z,0.00
2022-11-07T05:50:49.465Z,0.00
2022-11-07T05:51:49.547Z,0.00
2022-11-07T05:52:49.478Z,0.00
2022-11-07T05:53:49.442Z,0.00
2022-11-07T05:54:49.439Z,0.00
2022-11-07T05:55:49.446Z,0.00
2022-11-07T05:56:49.438Z,0.00
2022-11-07T05:57:49.433Z,0.00
2022-11-07T05:58:49.432Z,0.00
2022-11-07T05:59:49.417Z,0.00
2022-11-07T06:00:49.424Z,0.00
2022-11-07T06:01:51.341Z,0.00
2022-11-07T06:02:49.476Z,0.00
2022-11-07T06:03:49.411Z,0.00
2022-11-07T06:04:49.825Z,0.00
2022-11-07T06:05:49.402Z,0.00
2022-11-07T06:06:49.398Z,0.00
2022-11-07T06:07:49.394Z,0.00
2022-11-07T06:08:53.167Z,0.00
2022-11-07T06:09:49.405Z,0.00
2022-11-07T06:10:49.380Z,0.00
2022-11-07T06:11:49.378Z,0.00
2022-11-07T06:12:53.815Z,0.00
2022-11-07T06:13:49.371Z,0.00
2022-11-07T06:14:49.361Z,0.00
2022-11-07T06:15:49.375Z,0.00
2022-11-07T06:16:49.361Z,0.00
2022-11-07T06:17:49.373Z,0.00
2022-11-07T06:18:49.359Z,0.00
2022-11-07T06:19:49.354Z,0.00
2022-11-07T06:20:49.342Z,0.00
2022-11-07T06:21:49.344Z,0.00
2022-11-07T06:22:49.337Z,0.00
2022-11-07T06:23:49.338Z,0.00
2022-11-07T06:24:49.345Z,0.00
2022-11-07T06:25:49.320Z,4.00
2022-11-07T06:26:49.327Z,8.00
2022-11-07T06:27:49.325Z,8.00
2022-11-07T06:28:49.320Z,8.00
2022-11-07T06:29:49.335Z,8.00
2022-11-07T06:30:49.301Z,8.00
2022-11-07T06:31:49.305Z,8.00
2022-11-07T06:32:49.306Z,8.00
2022-11-07T06:33:49.313Z,8.00
2022-11-07T06:34:49.300Z,8.00
2022-11-07T06:35:49.283Z,8.00
2022-11-07T06:36:57.815Z,12.00
2022-11-07T06:37:49.284Z,8.00
2022-11-07T06:38:49.286Z,12.00
2022-11-07T06:39:49.283Z,12.00
2022-11-07T06:40:49.279Z,12.00
2022-11-07T06:41:49.270Z,16.00
2022-11-07T06:42:49.265Z,16.00
2022-11-07T06:43:49.273Z,20.00
2022-11-07T06:44:49.260Z,20.00
2022-11-07T06:45:49.252Z,20.00
2022-11-07T06:46:49.256Z,16.00
2022-11-07T06:47:49.243Z,16.00
2022-11-07T06:48:49.243Z,20.00
2022-11-07T06:49:49.260Z,20.00
2022-11-07T06:50:49.242Z,20.00
2022-11-07T06:51:49.231Z,20.00
2022-11-07T06:52:49.237Z,24.00
2022-11-07T06:53:49.240Z,24.00
2022-11-07T06:54:49.223Z,28.00
2022-11-07T06:55:49.236Z,32.00
2022-11-07T06:56:49.227Z,32.00
2022-11-07T06:57:49.219Z,36.00
2022-11-07T06:58:49.227Z,36.00
2022-11-07T06:59:51.968Z,44.00
2022-11-07T07:00:49.280Z,48.00
2022-11-07T07:01:49.261Z,48.00
2022-11-07T07:02:58.302Z,40.00
2022-11-07T07:03:49.208Z,40.00
2022-11-07T07:04:49.213Z,40.00
2022-11-07T07:05:49.222Z,40.00
2022-11-07T07:06:49.195Z,36.00
2022-11-07T07:07:49.190Z,40.00
2022-11-07T07:08:49.199Z,44.00
2022-11-07T07:09:49.189Z,48.00
2022-11-07T07:10:49.185Z,48.00
2022-11-07T07:11:49.176Z,40.00
2022-11-07T07:12:49.179Z,40.00
2022-11-07T07:13:49.169Z,28.00
2022-11-07T07:14:49.174Z,28.00
2022-11-07T07:15:51.119Z,28.00
2022-11-07T07:16:49.163Z,32.00
2022-11-07T07:17:49.169Z,36.00
2022-11-07T07:18:49.166Z,28.00
2022-11-07T07:19:49.160Z,24.00
2022-11-07T07:20:49.174Z,36.00
2022-11-07T07:21:49.273Z,48.00
2022-11-07T07:22:53.386Z,64.00
2022-11-07T07:23:49.144Z,64.00
2022-11-07T07:24:49.145Z,68.00
2022-11-07T07:25:49.165Z,68.00
2022-11-07T07:26:49.138Z,76.00
2022-11-07T07:27:49.138Z,76.00
2022-11-07T07:28:49.132Z,88.00
2022-11-07T07:29:49.139Z,92.00
2022-11-07T07:30:52.125Z,96.00
2022-11-07T07:31:49.124Z,124.00
2022-11-07T07:32:49.126Z,120.00
2022-11-07T07:33:49.126Z,136.00
2022-11-07T07:34:49.130Z,120.00
2022-11-07T07:35:49.128Z,96.00
2022-11-07T07:36:49.116Z,100.00
2022-11-07T07:37:49.226Z,112.00
2022-11-07T07:38:49.121Z,116.00
2022-11-07T07:39:49.099Z,92.00
2022-11-07T07:40:49.105Z,72.00
2022-11-07T07:41:49.113Z,72.00
2022-11-07T07:42:49.108Z,60.00
2022-11-07T07:43:49.096Z,64.00
2022-11-07T07:44:49.090Z,84.00
2022-11-07T07:45:49.099Z,136.00
2022-11-07T07:46:49.092Z,112.00
2022-11-07T07:47:49.098Z,80.00
2022-11-07T07:48:49.088Z,68.00
2022-11-07T07:49:49.076Z,84.00
2022-11-07T07:50:49.072Z,112.00
2022-11-07T07:51:49.094Z,104.00
2022-11-07T07:52:49.078Z,96.00
2022-11-07T07:53:49.178Z,96.00
2022-11-07T07:54:49.063Z,104.00
2022-11-07T07:55:49.055Z,116.00
2022-11-07T07:56:49.057Z,128.00
2022-11-07T07:57:49.059Z,132.00
2022-11-07T07:58:49.054Z,132.00
2022-11-07T07:59:49.087Z,128.00
2022-11-07T08:00:49.216Z,124.00
2022-11-07T08:01:55.209Z,116.00
2022-11-07T08:02:49.041Z,116.00
2022-11-07T08:04:01.243Z,124.00
2022-11-07T08:04:49.037Z,124.00
2022-11-07T08:05:49.032Z,104.00
2022-11-07T08:06:49.034Z,92.00
2022-11-07T08:07:49.036Z,84.00
2022-11-07T08:08:49.024Z,88.00
2022-11-07T08:09:49.140Z,100.00
2022-11-07T08:10:49.042Z,104.00
2022-11-07T08:11:49.019Z,108.00
2022-11-07T08:12:49.021Z,108.00
2022-11-07T08:13:49.010Z,84.00
2022-11-07T08:14:49.011Z,80.00
2022-11-07T08:15:49.011Z,80.00
2022-11-07T08:16:49.004Z,68.00
2022-11-07T08:17:48.990Z,72.00
2022-11-07T08:18:48.996Z,80.00
2022-11-07T08:19:49.001Z,72.00
2022-11-07T08:20:49.012Z,80.00
2022-11-07T08:21:48.993Z,88.00
2022-11-07T08:22:48.985Z,76.00
2022-11-07T08:23:48.985Z,72.00
2022-11-07T08:24:48.996Z,72.00
2022-11-07T08:25:49.213Z,76.00
2022-11-07T08:26:48.979Z,76.00
2022-11-07T08:27:48.963Z,80.00
2022-11-07T08:28:48.965Z,72.00
2022-11-07T08:29:48.963Z,68.00
2022-11-07T08:31:30.829Z,76.00
2022-11-07T08:32:30.834Z,84.00
2022-11-07T08:33:30.905Z,84.00
2022-11-07T08:34:30.820Z,84.00
2022-11-07T08:35:39.578Z,80.00
2022-11-07T08:36:30.816Z,92.00
2022-11-07T08:37:30.817Z,116.00
2022-11-07T08:38:30.821Z,144.00
2022-11-07T08:39:30.808Z,168.00
2022-11-07T08:40:30.802Z,180.00
2022-11-07T08:41:30.819Z,184.00
2022-11-07T08:42:30.796Z,164.00
2022-11-07T08:43:30.788Z,132.00
2022-11-07T08:44:30.797Z,136.00
2022-11-07T08:45:30.787Z,124.00
2022-11-07T08:46:30.797Z,108.00
2022-11-07T08:47:30.786Z,120.00
2022-11-07T08:48:30.777Z,112.00
2022-11-07T08:49:30.779Z,108.00
2022-11-07T08:50:30.792Z,128.00
2022-11-07T08:51:30.781Z,116.00
2022-11-07T08:52:30.774Z,108.00
2022-11-07T08:53:30.777Z,104.00
2022-11-07T08:54:30.764Z,96.00
2022-11-07T08:55:30.751Z,132.00
2022-11-07T08:56:30.763Z,140.00
2022-11-07T08:57:30.765Z,144.00
2022-11-07T08:58:30.754Z,160.00
2022-11-07T08:59:30.745Z,164.00
2022-11-07T09:00:30.747Z,164.00
2022-11-07T09:01:30.929Z,172.00
2022-11-07T09:03:52.936Z,200.00
2022-11-07T09:04:30.785Z,208.00
2022-11-07T09:05:30.739Z,220.00
2022-11-07T09:06:30.725Z,240.00
2022-11-07T09:07:30.726Z,248.00
2022-11-07T09:08:30.724Z,236.00
2022-11-07T09:09:30.732Z,220.00
2022-11-07T09:10:30.731Z,220.00
2022-11-07T09:11:30.726Z,236.00
2022-11-07T09:12:30.709Z,220.00
2022-11-07T09:13:30.728Z,204.00
2022-11-07T09:14:30.707Z,212.00
2022-11-07T09:15:30.707Z,216.00
2022-11-07T09:16:30.709Z,224.00
2022-11-07T09:17:30.691Z,240.00
2022-11-07T09:18:30.700Z,240.00
2022-11-07T09:19:30.710Z,236.00
2022-11-07T09:20:30.683Z,192.00
2022-11-07T09:21:30.691Z,156.00
2022-11-07T09:22:30.686Z,176.00
2022-11-07T09:23:30.674Z,200.00
2022-11-07T09:24:30.671Z,200.00
2022-11-07T09:25:30.721Z,192.00
2022-11-07T09:26:30.666Z,208.00
2022-11-07T09:27:30.661Z,212.00
2022-11-07T09:28:30.660Z,188.00
2022-11-07T09:29:30.693Z,160.00
2022-11-07T09:30:30.664Z,156.00
2022-11-07T09:31:30.657Z,160.00
2022-11-07T09:32:44.306Z,180.00
2022-11-07T09:33:30.647Z,232.00
2022-11-07T09:34:30.643Z,248.00
2022-11-07T09:35:30.660Z,260.00
2022-11-07T09:36:30.662Z,260.00
2022-11-07T09:37:30.642Z,232.00
2022-11-07T09:38:30.652Z,216.00
2022-11-07T09:39:30.629Z,204.00
2022-11-07T09:40:30.631Z,236.00
2022-11-07T09:41:30.626Z,196.00
2022-11-07T09:42:30.629Z,172.00
2022-11-07T09:43:30.621Z,180.00
2022-11-07T09:44:34.243Z,180.00
2022-11-07T09:45:30.633Z,200.00
2022-11-07T09:46:30.688Z,196.00
2022-11-07T09:47:30.615Z,188.00
2022-11-07T09:48:30.612Z,172.00
2022-11-07T09:49:30.596Z,188.00
2022-11-07T09:50:30.612Z,168.00
2022-11-07T09:51:30.610Z,168.00
2022-11-07T09:52:30.596Z,184.00
2022-11-07T09:53:30.582Z,176.00
2022-11-07T09:54:30.584Z,180.00
2022-11-07T09:55:30.590Z,184.00
2022-11-07T09:56:30.581Z,184.00
2022-11-07T09:57:30.575Z,192.00
2022-11-07T09:58:30.580Z,160.00
2022-11-07T09:59:30.571Z,124.00
2022-11-07T10:00:30.599Z,128.00
2022-11-07T10:01:30.838Z,132.00
2022-11-07T10:02:30.602Z,144.00
2022-11-07T10:03:30.566Z,152.00
2022-11-07T10:04:30.554Z,172.00
2022-11-07T10:05:30.551Z,160.00
2022-11-07T10:06:30.548Z,144.00
2022-11-07T10:07:30.578Z,136.00
2022-11-07T10:08:30.538Z,124.00
2022-11-07T10:09:30.543Z,172.00
2022-11-07T10:10:30.541Z,188.00
2022-11-07T10:11:30.542Z,164.00
2022-11-07T10:12:30.539Z,168.00
2022-11-07T10:13:30.537Z,196.00
2022-11-07T10:14:30.534Z,216.00
2022-11-07T10:15:30.530Z,216.00
2022-11-07T10:16:30.527Z,204.00
2022-11-07T10:17:30.531Z,220.00
2022-11-07T10:18:30.520Z,240.00
2022-11-07T10:19:30.517Z,236.00
2022-11-07T10:20:30.524Z,236.00
2022-11-07T10:21:37.498Z,260.00
2022-11-07T10:22:30.513Z,248.00
2022-11-07T10:23:30.510Z,256.00
2022-11-07T10:24:30.491Z,252.00
2022-11-07T10:25:30.494Z,284.00
2022-11-07T10:26:30.490Z,312.00
2022-11-07T10:27:32.827Z,296.00
2022-11-07T10:28:30.483Z,296.00
2022-11-07T10:29:30.485Z,304.00
2022-11-07T10:30:30.492Z,268.00
2022-11-07T10:31:30.479Z,240.00
2022-11-07T10:32:30.468Z,236.00
2022-11-07T10:33:30.521Z,244.00
2022-11-07T10:34:30.468Z,216.00
2022-11-07T10:35:30.487Z,260.00
2022-11-07T10:36:30.465Z,272.00
2022-11-07T10:37:30.475Z,280.00
2022-11-07T10:38:30.463Z,304.00
2022-11-07T10:39:30.452Z,352.00
2022-11-07T10:40:30.447Z,384.00
2022-11-07T10:41:30.450Z,420.00
2022-11-07T10:42:30.444Z,396.00
2022-11-07T10:43:30.446Z,372.00
2022-11-07T10:44:30.441Z,344.00
2022-11-07T10:45:30.444Z,308.00
2022-11-07T10:46:30.442Z,296.00
2022-11-07T10:47:30.432Z,316.00
2022-11-07T10:48:30.422Z,372.00
2022-11-07T10:49:30.446Z,324.00
2022-11-07T10:50:30.417Z,364.00
2022-11-07T10:51:30.423Z,404.00
2022-11-07T10:52:30.425Z,360.00
2022-11-07T10:53:30.419Z,276.00
2022-11-07T10:54:30.403Z,268.00
2022-11-07T10:55:30.415Z,268.00
2022-11-07T10:56:30.403Z,248.00
2022-11-07T10:57:30.401Z,240.00
2022-11-07T10:58:30.420Z,232.00
2022-11-07T10:59:35.836Z,232.00
2022-11-07T11:00:30.393Z,224.00
2022-11-07T11:01:30.531Z,196.00
2022-11-07T11:02:30.390Z,164.00
2022-11-07T11:03:43.255Z,160.00
2022-11-07T11:04:30.394Z,208.00
2022-11-07T11:05:30.396Z,244.00
2022-11-07T11:06:30.376Z,264.00
2022-11-07T11:07:30.382Z,288.00
2022-11-07T11:08:30.371Z,316.00
2022-11-07T11:09:30.369Z,348.00
2022-11-07T11:10:30.358Z,316.00
2022-11-07T11:11:30.371Z,312.00
2022-11-07T11:12:33.945Z,288.00
2022-11-07T11:13:30.351Z,324.00
2022-11-07T11:14:30.357Z,336.00
2022-11-07T11:15:35.523Z,272.00
2022-11-07T11:16:30.348Z,208.00
2022-11-07T11:17:30.450Z,160.00
2022-11-07T11:18:30.364Z,132.00
2022-11-07T11:19:30.346Z,124.00
2022-11-07T11:20:30.354Z,132.00
2022-11-07T11:21:30.354Z,128.00
2022-11-07T11:22:30.345Z,144.00
2022-11-07T11:23:30.330Z,144.00
2022-11-07T11:24:30.325Z,160.00
2022-11-07T11:25:30.321Z,176.00
2022-11-07T11:26:30.330Z,184.00
2022-11-07T11:27:30.327Z,192.00
2022-11-07T11:28:30.320Z,184.00
2022-11-07T11:29:32.341Z,144.00
2022-11-07T11:30:30.307Z,144.00
2022-11-07T11:31:30.315Z,152.00
2022-11-07T11:32:30.297Z,136.00
2022-11-07T11:33:30.309Z,112.00
2022-11-07T11:34:30.289Z,148.00
2022-11-07T11:35:30.295Z,176.00
2022-11-07T11:36:30.299Z,236.00
2022-11-07T11:37:30.319Z,232.00
2022-11-07T11:38:30.280Z,264.00
2022-11-07T11:39:30.290Z,232.00
2022-11-07T11:40:30.273Z,248.00
2022-11-07T11:41:30.269Z,244.00
2022-11-07T11:42:30.266Z,228.00
2022-11-07T11:43:30.263Z,296.00
2022-11-07T11:44:30.263Z,224.00
2022-11-07T11:45:30.266Z,204.00
2022-11-07T11:46:30.258Z,212.00
2022-11-07T11:47:34.276Z,204.00
2022-11-07T11:48:30.261Z,196.00
2022-11-07T11:49:30.263Z,192.00
2022-11-07T11:50:30.251Z,188.00
2022-11-07T11:51:30.256Z,192.00
2022-11-07T11:52:30.248Z,188.00
2022-11-07T11:53:30.269Z,188.00
2022-11-07T11:54:30.247Z,176.00
2022-11-07T11:55:30.235Z,192.00
2022-11-07T11:56:30.231Z,224.00
2022-11-07T11:57:30.221Z,200.00
2022-11-07T11:58:30.230Z,204.00
2022-11-07T11:59:30.239Z,208.00
2022-11-07T12:00:30.222Z,200.00
2022-11-07T12:01:30.222Z,200.00
2022-11-07T12:02:30.273Z,228.00
2022-11-07T12:03:30.221Z,200.00
2022-11-07T12:04:30.198Z,208.00
2022-11-07T12:05:30.216Z,212.00
2022-11-07T12:06:30.197Z,216.00
2022-11-07T12:07:30.201Z,208.00
2022-11-07T12:08:30.197Z,208.00
2022-11-07T12:09:30.237Z,220.00
2022-11-07T12:10:30.210Z,212.00
2022-11-07T12:11:30.201Z,208.00
2022-11-07T12:12:30.183Z,196.00
2022-11-07T12:13:30.184Z,212.00
2022-11-07T12:14:30.180Z,200.00
2022-11-07T12:15:30.180Z,248.00
2022-11-07T12:16:30.186Z,280.00
2022-11-07T12:17:30.163Z,240.00
2022-11-07T12:18:30.176Z,256.00
2022-11-07T12:19:30.165Z,224.00
2022-11-07T12:20:30.167Z,240.00
2022-11-07T12:21:30.166Z,256.00
2022-11-07T12:22:30.163Z,236.00
2022-11-07T12:23:30.154Z,224.00
2022-11-07T12:24:30.153Z,236.00
2022-11-07T12:25:30.176Z,240.00
2022-11-07T12:26:30.172Z,228.00
2022-11-07T12:27:30.148Z,228.00
2022-11-07T12:28:30.149Z,232.00
2022-11-07T12:29:30.129Z,228.00
2022-11-07T12:30:30.132Z,220.00
2022-11-07T12:31:30.146Z,216.00
2022-11-07T12:32:30.122Z,216.00
2022-11-07T12:33:30.134Z,228.00
2022-11-07T12:34:30.119Z,208.00
2022-11-07T12:35:30.123Z,204.00
2022-11-07T12:36:30.139Z,200.00
2022-11-07T12:37:30.119Z,192.00
2022-11-07T12:38:30.105Z,188.00
2022-11-07T12:39:30.107Z,188.00
2022-11-07T12:40:30.099Z,188.00
2022-11-07T12:41:30.117Z,188.00
2022-11-07T12:42:30.101Z,188.00
2022-11-07T12:43:30.088Z,192.00
2022-11-07T12:44:30.088Z,188.00
2022-11-07T12:45:30.086Z,196.00
2022-11-07T12:46:30.077Z,196.00
2022-11-07T12:47:30.094Z,196.00
2022-11-07T12:48:30.071Z,200.00
2022-11-07T12:49:30.074Z,184.00
2022-11-07T12:50:30.081Z,180.00
2022-11-07T12:51:30.091Z,188.00
2022-11-07T12:52:30.064Z,200.00
2022-11-07T12:53:30.065Z,220.00
2022-11-07T12:54:30.065Z,208.00
2022-11-07T12:55:30.064Z,200.00
2022-11-07T12:56:30.060Z,204.00
2022-11-07T12:57:30.090Z,204.00
2022-11-07T12:58:30.051Z,208.00